Time;durP1;ratioP1;P1;durP2;ratioP2;P2;SDS_P1;SDS_P2;PMS_P1;PMS_P2;Temp;Humidity;BMP_temperature;BMP_pressure;BME280_temperature;BME280_humidity;BME280_pressure;Samples;Min_cycle;Max_cycle;Signal;HPM_P1;HPM_P2
2021/10/08 00:00:11;;;;;;;31.42;18.75;;;;;;;12.02;nan;103228.31;4927287;29;20032;-56
2021/10/08 00:02:37;;;;;;;32.53;19.00;;;;;;;12.08;nan;103237.44;4927029;29;20031;-53
2021/10/08 00:05:03;;;;;;;27.85;17.42;;;;;;;12.07;nan;103233.94;4926868;28;20429;-55
2021/10/08 00:07:28;;;;;;;28.08;17.25;;;;;;;12.09;nan;103234.56;4921356;29;20029;-56
2021/10/08 00:09:54;;;;;;;31.65;18.70;;;;;;;12.13;nan;103232.31;4927492;29;20040;-55
2021/10/08 00:12:19;;;;;;;29.05;18.05;;;;;;;12.14;nan;103235.81;4917006;29;20090;-56
2021/10/08 00:14:45;;;;;;;30.30;18.35;;;;;;;12.12;nan;103235.19;4926765;29;20549;-56
2021/10/08 00:17:11;;;;;;;36.72;19.10;;;;;;;12.08;nan;103235.59;4926967;29;20474;-55
2021/10/08 00:19:37;;;;;;;31.23;18.48;;;;;;;12.08;nan;103232.06;4926404;29;20481;-56
2021/10/08 00:22:03;;;;;;;29.48;18.30;;;;;;;12.01;nan;103228.50;4922810;29;20458;-56
2021/10/08 00:24:29;;;;;;;37.05;19.30;;;;;;;11.97;nan;103230.75;4923968;29;20723;-56
2021/10/08 00:26:54;;;;;;;34.70;18.85;;;;;;;11.90;nan;103234.44;4926763;29;20087;-55
2021/10/08 00:29:20;;;;;;;32.90;19.35;;;;;;;11.88;nan;103231.94;4921224;29;20043;-54
2021/10/08 00:31:46;;;;;;;35.22;19.95;;;;;;;11.86;nan;103238.56;4926297;29;20031;-54
2021/10/08 00:34:11;;;;;;;33.90;19.38;;;;;;;11.83;nan;103233.53;4925319;29;20028;-55
2021/10/08 00:36:37;;;;;;;39.55;20.80;;;;;;;11.79;nan;103236.63;4927360;29;20030;-55
2021/10/08 00:39:03;;;;;;;31.90;20.02;;;;;;;11.82;nan;103234.56;4926828;29;20103;-55
2021/10/08 00:41:29;;;;;;;34.85;19.60;;;;;;;11.79;nan;103239.31;4925733;29;20170;-56
2021/10/08 00:43:54;;;;;;;31.58;20.17;;;;;;;11.77;nan;103238.66;4924969;29;20039;-55
2021/10/08 00:46:21;;;;;;;36.88;20.63;;;;;;;11.71;nan;103239.44;4923521;29;20024;-55
2021/10/08 00:48:51;;;;;;;34.17;19.70;;;;;;;11.68;nan;103242.53;4927613;29;20122;-55
2021/10/08 00:51:19;;;;;;;29.00;19.17;;;;;;;11.69;nan;103233.44;4924894;29;20032;-55
2021/10/08 00:53:44;;;;;;;40.70;22.05;;;;;;;11.60;nan;103237.28;4923248;29;20032;-54
2021/10/08 00:56:10;;;;;;;43.20;21.90;;;;;;;11.59;nan;103232.94;4924708;29;20097;-54
2021/10/08 00:58:36;;;;;;;41.15;21.85;;;;;;;11.56;nan;103232.50;4923843;29;20508;-55
2021/10/08 01:01:02;;;;;;;44.28;22.52;;;;;;;11.52;nan;103233.91;4924622;29;20043;-53
2021/10/08 01:03:27;;;;;;;41.70;22.83;;;;;;;11.52;nan;103237.44;4923946;29;20039;-55
2021/10/08 01:05:53;;;;;;;42.72;22.60;;;;;;;11.49;nan;103240.50;4923879;29;20039;-56
2021/10/08 01:08:19;;;;;;;44.90;22.83;;;;;;;11.50;nan;103239.47;4929999;29;20073;-55
2021/10/08 01:10:46;;;;;;;44.30;21.55;;;;;;;11.50;nan;103231.41;4923973;29;20044;-55
2021/10/08 01:13:12;;;;;;;37.17;22.45;;;;;;;11.48;nan;103236.13;4927357;29;20039;-55
2021/10/08 01:15:39;;;;;;;41.47;23.42;;;;;;;11.52;nan;103236.59;4922792;29;20084;-55
2021/10/08 01:18:05;;;;;;;36.78;21.58;;;;;;;11.57;nan;103234.97;4923906;29;20062;-55
2021/10/08 01:20:32;;;;;;;41.75;21.25;;;;;;;11.56;nan;103235.19;4923476;29;20039;-56
2021/10/08 01:22:58;;;;;;;40.35;21.77;;;;;;;11.60;nan;103231.06;4923362;29;20067;-55
2021/10/08 01:25:26;;;;;;;43.67;23.60;;;;;;;11.56;nan;103233.31;4907367;29;20063;-55
2021/10/08 01:27:51;;;;;;;40.70;21.83;;;;;;;11.61;nan;103238.94;4925856;29;20028;-55
2021/10/08 01:30:17;;;;;;;44.05;22.75;;;;;;;11.65;nan;103237.50;4922485;29;20475;-55
2021/10/08 01:32:43;;;;;;;43.55;23.92;;;;;;;11.66;nan;103241.03;4926713;29;20039;-55
2021/10/08 01:35:09;;;;;;;44.05;22.88;;;;;;;11.69;nan;103238.81;4926942;29;20200;-55
2021/10/08 01:37:34;;;;;;;43.15;23.50;;;;;;;11.69;nan;103243.34;4923162;29;20107;-54
2021/10/08 01:40:02;;;;;;;44.30;23.90;;;;;;;11.70;nan;103237.78;4924709;29;20545;-55
2021/10/08 01:42:28;;;;;;;38.70;22.45;;;;;;;11.77;nan;103235.97;4922669;29;20040;-55
2021/10/08 01:44:54;;;;;;;40.75;23.90;;;;;;;11.78;nan;103234.09;4920226;29;20156;-55
2021/10/08 01:47:19;;;;;;;37.90;21.85;;;;;;;11.79;nan;103236.63;4922546;29;20020;-56
2021/10/08 01:49:45;;;;;;;39.85;21.40;;;;;;;11.82;nan;103242.63;4921266;29;20043;-55
2021/10/08 01:52:10;;;;;;;37.17;20.05;;;;;;;11.83;nan;103241.59;4923397;29;20505;-56
2021/10/08 01:54:36;;;;;;;34.28;20.70;;;;;;;11.86;nan;103244.75;4925268;29;20122;-55
2021/10/08 01:57:01;;;;;;;38.30;21.10;;;;;;;11.86;nan;103246.59;4925302;29;20398;-55
2021/10/08 01:59:27;;;;;;;37.53;21.00;;;;;;;11.90;nan;103242.50;4922458;29;20277;-55
2021/10/08 02:01:52;;;;;;;42.75;23.02;;;;;;;11.86;nan;103242.06;4924415;29;20038;-55
2021/10/08 02:04:18;;;;;;;40.63;23.23;;;;;;;11.92;nan;103249.31;4923161;29;20028;-56
2021/10/08 02:06:43;;;;;;;38.38;22.48;;;;;;;11.95;nan;103250.78;4921358;29;20501;-55
2021/10/08 02:09:10;;;;;;;41.75;23.17;;;;;;;11.94;nan;103249.13;4924419;29;20128;-56
2021/10/08 02:11:36;;;;;;;40.35;22.52;;;;;;;11.90;nan;103243.31;4924866;29;20031;-56
2021/10/08 02:14:02;;;;;;;39.90;23.23;;;;;;;11.92;nan;103251.19;4926704;29;20038;-56
2021/10/08 02:16:27;;;;;;;41.75;24.13;;;;;;;11.97;nan;103251.41;4923814;29;20024;-55
2021/10/08 02:18:55;;;;;;;41.45;23.15;;;;;;;11.96;nan;103249.75;4924002;29;20036;-56
2021/10/08 02:21:21;;;;;;;40.97;23.67;;;;;;;11.96;nan;103255.97;4924279;29;20524;-55
2021/10/08 02:23:47;;;;;;;39.13;23.48;;;;;;;11.98;nan;103253.91;4920370;29;20518;-54
2021/10/08 02:26:14;;;;;;;42.65;24.23;;;;;;;11.98;nan;103266.50;4921755;29;20028;-55
2021/10/08 02:28:40;;;;;;;33.92;21.92;;;;;;;12.03;nan;103261.41;4920379;29;20035;-55
2021/10/08 02:31:06;;;;;;;38.00;21.90;;;;;;;12.03;nan;103256.84;4924275;29;20028;-56
2021/10/08 02:33:34;;;;;;;43.25;23.05;;;;;;;12.06;nan;103258.31;4929493;29;20036;-56
2021/10/08 02:36:01;;;;;;;37.75;22.83;;;;;;;12.08;nan;103261.63;4924844;29;20055;-56
2021/10/08 02:38:28;;;;;;;37.20;22.08;;;;;;;12.07;nan;103265.34;4924234;29;20027;-55
2021/10/08 02:40:54;;;;;;;40.90;22.55;;;;;;;12.07;nan;103263.50;4924285;29;20062;-55
2021/10/08 02:43:21;;;;;;;40.55;23.10;;;;;;;12.04;nan;103273.81;4909894;29;20027;-56
2021/10/08 02:45:46;;;;;;;40.17;23.80;;;;;;;12.01;nan;103266.94;4926672;29;20095;-56
2021/10/08 02:48:12;;;;;;;37.83;22.33;;;;;;;12.02;nan;103260.53;4928532;29;20031;-55
2021/10/08 02:50:38;;;;;;;41.65;22.77;;;;;;;12.04;nan;103271.94;4922750;29;20034;-55
2021/10/08 02:53:03;;;;;;;34.47;22.40;;;;;;;12.08;nan;103265.16;4925562;29;20043;-54
2021/10/08 02:55:29;;;;;;;38.00;22.80;;;;;;;12.09;nan;103260.59;4926855;29;20035;-55
2021/10/08 02:57:54;;;;;;;42.33;23.92;;;;;;;12.07;nan;103273.41;4926949;29;20019;-55
2021/10/08 03:00:19;;;;;;;38.85;23.20;;;;;;;12.04;nan;103274.63;4927005;29;20036;-55
2021/10/08 03:02:45;;;;;;;42.13;23.80;;;;;;;12.05;nan;103279.00;4927738;29;20076;-56
2021/10/08 03:05:11;;;;;;;37.42;23.23;;;;;;;12.09;nan;103282.09;4923122;29;20055;-55
2021/10/08 03:07:37;;;;;;;36.08;23.05;;;;;;;12.09;nan;103282.09;4927879;29;20292;-56
2021/10/08 03:10:05;;;;;;;39.67;22.95;;;;;;;12.10;nan;103267.63;4924116;29;20451;-55
2021/10/08 03:12:31;;;;;;;39.92;24.42;;;;;;;12.09;nan;103282.09;4927652;29;20035;-55
2021/10/08 03:14:57;;;;;;;36.53;23.13;;;;;;;12.08;nan;103272.38;4901421;29;20027;-55
2021/10/08 03:17:22;;;;;;;40.03;23.20;;;;;;;12.07;nan;103289.53;4924434;29;20027;-55
2021/10/08 03:19:48;;;;;;;48.05;24.10;;;;;;;12.07;nan;103279.63;4926146;29;20039;-56
2021/10/08 03:22:13;;;;;;;40.40;23.80;;;;;;;12.10;nan;103284.59;4925858;29;20102;-56
2021/10/08 03:24:39;;;;;;;39.95;23.25;;;;;;;12.10;nan;103289.13;4927939;29;20053;-55
2021/10/08 03:27:05;;;;;;;41.10;24.13;;;;;;;12.07;nan;103287.69;4925720;29;20131;-55
2021/10/08 03:29:30;;;;;;;48.20;25.13;;;;;;;12.07;nan;103293.06;4926901;29;20410;-56
2021/10/08 03:31:55;;;;;;;45.20;25.52;;;;;;;12.12;nan;103286.25;4923943;29;20027;-55
2021/10/08 03:34:21;;;;;;;46.08;25.00;;;;;;;12.11;nan;103290.78;4926992;29;20115;-55
2021/10/08 03:36:50;;;;;;;45.88;25.83;;;;;;;12.09;nan;103292.84;4925941;29;20028;-55
2021/10/08 03:39:20;;;;;;;41.10;26.13;;;;;;;12.13;nan;103290.59;4923837;29;20035;-55
2021/10/08 03:41:46;;;;;;;42.78;24.00;;;;;;;12.14;nan;103290.41;4924872;29;20467;-56
2021/10/08 03:44:13;;;;;;;44.85;25.85;;;;;;;12.11;nan;103290.78;4922766;29;20028;-55
2021/10/08 03:46:44;;;;;;;39.67;25.23;;;;;;;12.13;nan;103286.06;4925245;29;20479;-54
2021/10/08 03:51:36;;;;;;;41.45;25.13;;;;;;;12.16;nan;103293.72;4921790;29;20028;-55
2021/10/08 03:54:03;;;;;;;40.35;25.75;;;;;;;12.18;nan;103291.66;4923781;29;20035;-55
2021/10/08 03:56:29;;;;;;;42.05;25.45;;;;;;;12.18;nan;103297.03;4921699;29;20031;-56
2021/10/08 03:58:56;;;;;;;45.08;25.98;;;;;;;12.18;nan;103296.22;4911800;29;20481;-55
2021/10/08 04:01:21;;;;;;;42.97;25.67;;;;;;;12.17;nan;103283.78;4924373;29;20044;-56
2021/10/08 04:03:48;;;;;;;40.95;25.10;;;;;;;12.16;nan;103288.34;4926224;29;20094;-55
2021/10/08 04:06:14;;;;;;;39.42;25.25;;;;;;;12.15;nan;103296.59;4928617;29;20040;-56
2021/10/08 04:08:40;;;;;;;39.08;23.60;;;;;;;12.12;nan;103292.47;4926349;29;20027;-55
2021/10/08 04:11:06;;;;;;;40.92;25.10;;;;;;;12.10;nan;103295.34;4926300;29;20493;-56
2021/10/08 04:13:31;;;;;;;36.65;23.30;;;;;;;12.13;nan;103296.81;4922200;29;20512;-56
2021/10/08 04:15:57;;;;;;;43.63;25.27;;;;;;;12.13;nan;103304.03;4925519;29;20375;-55
2021/10/08 04:18:22;;;;;;;39.20;23.42;;;;;;;12.08;nan;103296.56;4922294;29;20509;-55
2021/10/08 04:20:48;;;;;;;40.30;24.45;;;;;;;12.11;nan;103304.22;4925553;29;20055;-55
2021/10/08 04:23:14;;;;;;;42.45;22.73;;;;;;;12.12;nan;103305.91;4926050;29;20028;-55
2021/10/08 04:25:40;;;;;;;36.65;23.67;;;;;;;12.10;nan;103305.25;4925465;29;20031;-55
2021/10/08 04:28:05;;;;;;;39.08;25.20;;;;;;;12.04;nan;103311.44;4923759;29;20526;-55
2021/10/08 04:30:31;;;;;;;43.88;25.50;;;;;;;12.09;nan;103312.50;4925696;29;20035;-55
2021/10/08 04:32:56;;;;;;;39.85;24.27;;;;;;;12.09;nan;103311.66;4924997;29;20390;-55
2021/10/08 04:35:22;;;;;;;37.42;22.77;;;;;;;12.10;nan;103316.84;4922896;29;20371;-56
2021/10/08 04:37:47;;;;;;;39.00;23.50;;;;;;;12.14;nan;103316.44;4928287;29;20031;-53
2021/10/08 04:40:13;;;;;;;38.45;23.55;;;;;;;12.13;nan;103321.00;4924836;29;20537;-56
2021/10/08 04:42:39;;;;;;;39.42;23.92;;;;;;;12.13;nan;103314.78;4925682;29;20123;-55
2021/10/08 04:45:05;;;;;;;40.10;23.73;;;;;;;12.12;nan;103321.19;4924903;29;20031;-55
2021/10/08 04:47:30;;;;;;;37.63;22.98;;;;;;;12.09;nan;103314.34;4924049;29;20075;-55
2021/10/08 04:49:56;;;;;;;39.25;23.33;;;;;;;12.08;nan;103323.44;4920814;29;20032;-55
2021/10/08 04:52:21;;;;;;;42.75;23.63;;;;;;;12.01;nan;103325.22;4922920;29;20030;-56
2021/10/08 04:54:47;;;;;;;39.13;22.48;;;;;;;12.00;nan;103331.63;4920195;29;20553;-55
2021/10/08 04:57:12;;;;;;;41.08;24.63;;;;;;;12.00;nan;103342.38;4926055;29;20494;-56
2021/10/08 04:59:38;;;;;;;39.15;23.55;;;;;;;11.92;nan;103329.09;4919175;29;20067;-56
2021/10/08 05:02:04;;;;;;;43.20;24.17;;;;;;;11.77;nan;103332.66;4919285;29;20028;-54
2021/10/08 05:04:29;;;;;;;39.97;25.25;;;;;;;11.64;nan;103337.06;4923506;29;20051;-53
2021/10/08 05:06:55;;;;;;;46.80;25.05;;;;;;;11.59;nan;103337.66;4924727;29;20055;-55
2021/10/08 05:09:22;;;;;;;40.35;24.10;;;;;;;11.63;nan;103344.28;4924326;29;20071;-56
2021/10/08 05:11:47;;;;;;;37.28;24.63;;;;;;;11.63;nan;103336.22;4923226;29;20418;-56
2021/10/08 05:14:13;;;;;;;41.03;24.55;;;;;;;11.68;nan;103338.38;4924928;29;20037;-55
2021/10/08 05:16:39;;;;;;;44.58;24.23;;;;;;;11.62;nan;103345.31;4921280;29;20035;-55
2021/10/08 05:19:05;;;;;;;40.72;23.70;;;;;;;11.65;nan;103347.63;4927101;29;20035;-55
2021/10/08 05:21:31;;;;;;;47.38;24.77;;;;;;;11.70;nan;103353.25;4918541;29;20027;-55
2021/10/08 05:23:56;;;;;;;39.72;24.20;;;;;;;11.71;nan;103346.88;4903275;29;20020;-55
2021/10/08 05:26:22;;;;;;;44.30;24.98;;;;;;;11.71;nan;103351.41;4924563;29;20227;-55
2021/10/08 05:28:47;;;;;;;41.15;23.63;;;;;;;11.71;nan;103352.22;4923636;29;20059;-54
2021/10/08 05:31:13;;;;;;;40.25;24.63;;;;;;;11.77;nan;103359.50;4923455;29;20032;-54
2021/10/08 05:33:38;;;;;;;36.20;23.08;;;;;;;11.80;nan;103358.31;4925038;29;20158;-55
2021/10/08 05:36:04;;;;;;;39.63;23.70;;;;;;;11.82;nan;103355.44;4922835;29;20382;-56
2021/10/08 05:38:30;;;;;;;41.83;24.90;;;;;;;11.83;nan;103357.94;4919676;29;20398;-55
2021/10/08 05:40:55;;;;;;;39.42;21.80;;;;;;;11.84;nan;103364.13;4925419;29;20278;-55
2021/10/08 05:43:22;;;;;;;36.63;23.42;;;;;;;11.88;nan;103362.75;4921435;29;20031;-55
2021/10/08 05:45:47;;;;;;;41.38;24.58;;;;;;;11.97;nan;103369.63;4924325;29;20325;-55
2021/10/08 05:48:14;;;;;;;39.63;22.15;;;;;;;12.02;nan;103372.56;4924192;29;20509;-55
2021/10/08 05:50:39;;;;;;;39.22;22.95;;;;;;;12.12;nan;103373.09;4924972;29;20266;-55
2021/10/08 05:53:08;;;;;;;33.97;21.02;;;;;;;12.16;nan;103363.59;4896525;29;20024;-55
2021/10/08 05:55:35;;;;;;;38.20;23.23;;;;;;;12.27;nan;103376.50;4921011;29;20047;-54
2021/10/08 05:58:00;;;;;;;42.13;21.77;;;;;;;12.38;nan;103381.34;4918830;29;20027;-55
2021/10/08 06:00:26;;;;;;;38.33;22.45;;;;;;;12.39;nan;103374.97;4918855;29;20032;-55
2021/10/08 06:02:52;;;;;;;38.22;22.15;;;;;;;12.42;nan;103380.97;4906120;29;20149;-55
2021/10/08 06:05:18;;;;;;;34.13;21.88;;;;;;;12.49;nan;103379.97;4923674;29;20432;-55
2021/10/08 06:07:43;;;;;;;36.17;22.40;;;;;;;12.62;nan;103381.94;4924553;29;20553;-55
2021/10/08 06:10:09;;;;;;;36.53;21.25;;;;;;;12.73;nan;103385.91;4922562;29;20504;-56
2021/10/08 06:12:34;;;;;;;40.67;23.10;;;;;;;12.89;nan;103378.34;4924567;29;20043;-54
2021/10/08 06:15:00;;;;;;;36.97;22.30;;;;;;;13.03;nan;103387.31;4924468;29;20386;-55
2021/10/08 06:17:25;;;;;;;38.40;21.45;;;;;;;13.22;nan;103385.75;4915273;29;20023;-55
2021/10/08 06:19:52;;;;;;;33.28;21.23;;;;;;;13.38;nan;103380.03;4924234;29;20032;-55
2021/10/08 06:22:17;;;;;;;35.50;21.60;;;;;;;13.60;nan;103395.00;4920945;29;20032;-55
2021/10/08 06:24:42;;;;;;;35.17;20.88;;;;;;;13.70;nan;103391.09;4917302;29;20054;-55
2021/10/08 06:27:08;;;;;;;33.80;19.77;;;;;;;13.75;nan;103386.75;4917593;29;20028;-55
2021/10/08 06:29:33;;;;;;;30.52;19.48;;;;;;;13.86;nan;103382.63;4922918;29;20031;-56
2021/10/08 06:31:59;;;;;;;34.53;20.35;;;;;;;13.87;nan;103393.19;4921398;29;20114;-55
2021/10/08 06:34:25;;;;;;;33.70;19.95;;;;;;;13.95;nan;103397.53;4920246;29;20534;-55
2021/10/08 06:36:50;;;;;;;32.38;18.92;;;;;;;13.91;nan;103402.50;4905182;29;20051;-55
2021/10/08 06:39:16;;;;;;;31.70;20.35;;;;;;;13.93;nan;103398.78;4920186;29;20099;-55
2021/10/08 06:41:42;;;;;;;37.03;20.30;;;;;;;13.80;nan;103405.81;4919108;29;20482;-53
2021/10/08 06:44:07;;;;;;;33.28;19.17;;;;;;;13.94;nan;103409.34;4923192;29;20038;-55
2021/10/08 06:46:33;;;;;;;34.25;18.95;;;;;;;13.95;nan;103408.31;4918873;29;20047;-55
2021/10/08 06:48:58;;;;;;;32.15;20.05;;;;;;;13.85;nan;103418.69;4922284;29;20028;-55
2021/10/08 06:51:24;;;;;;;29.92;18.83;;;;;;;13.83;nan;103418.06;4920274;29;20390;-55
2021/10/08 06:53:51;;;;;;;29.80;19.15;;;;;;;13.95;nan;103419.09;4921350;29;20051;-56
2021/10/08 06:56:16;;;;;;;33.58;18.77;;;;;;;14.02;nan;103422.66;4919979;29;20038;-56
2021/10/08 06:58:42;;;;;;;31.50;18.98;;;;;;;14.11;nan;103423.25;4918936;29;20043;-55
2021/10/08 07:01:08;;;;;;;35.30;17.95;;;;;;;14.21;nan;103429.91;4917582;29;20034;-53
2021/10/08 07:03:33;;;;;;;32.60;18.63;;;;;;;14.32;nan;103419.53;4922438;29;20092;-54
2021/10/08 07:05:59;;;;;;;28.30;18.20;;;;;;;14.39;nan;103421.19;4923034;29;20035;-55
2021/10/08 07:08:24;;;;;;;30.83;18.00;;;;;;;14.53;nan;103432.81;4920780;29;20261;-54
2021/10/08 07:10:49;;;;;;;28.15;17.55;;;;;;;14.63;nan;103425.13;4923831;29;20028;-55
2021/10/08 07:13:15;;;;;;;29.00;18.10;;;;;;;14.80;nan;103426.34;4925084;29;20125;-56
2021/10/08 07:15:40;;;;;;;29.75;17.67;;;;;;;14.94;nan;103429.03;4923599;29;20039;-55
2021/10/08 07:18:09;;;;;;;26.10;17.30;;;;;;;15.09;nan;103421.50;4927124;29;20054;-56
2021/10/08 07:20:35;;;;;;;31.42;16.83;;;;;;;15.12;nan;103431.88;4927390;29;20039;-55
2021/10/08 07:23:02;;;;;;;24.88;16.83;;;;;;;15.31;nan;103428.28;4927552;29;20095;-55
2021/10/08 07:25:30;;;;;;;27.25;16.50;;;;;;;15.40;nan;103423.44;4927524;29;20031;-54
2021/10/08 07:27:56;;;;;;;26.30;16.52;;;;;;;15.61;nan;103427.72;4928153;29;20565;-55
2021/10/08 07:30:22;;;;;;;28.45;17.30;;;;;;;15.71;nan;103425.38;4928043;29;20107;-55
2021/10/08 07:32:47;;;;;;;30.85;17.20;;;;;;;15.88;nan;103431.09;4910106;29;20027;-55
2021/10/08 07:35:15;;;;;;;29.50;17.00;;;;;;;16.14;nan;103435.47;4926678;29;20063;-56
2021/10/08 07:37:41;;;;;;;30.17;16.13;;;;;;;16.36;nan;103434.06;4923799;29;20568;-55
2021/10/08 07:40:09;;;;;;;24.40;15.85;;;;;;;16.54;nan;103436.81;4926702;29;20043;-55
2021/10/08 07:42:35;;;;;;;31.27;16.42;;;;;;;16.51;nan;103442.63;4925350;29;20458;-54
2021/10/08 07:45:05;;;;;;;28.67;14.93;;;;;;;16.57;nan;103441.78;4926534;29;20032;-54
2021/10/08 07:47:30;;;;;;;25.20;14.55;;;;;;;16.59;nan;103442.38;4927851;29;20019;-56
2021/10/08 07:49:56;;;;;;;26.52;15.40;;;;;;;16.91;nan;103442.28;4905862;29;20426;-56
2021/10/08 07:52:22;;;;;;;26.65;15.98;;;;;;;17.14;nan;103445.16;4927293;29;20027;-56
2021/10/08 07:54:48;;;;;;;28.17;15.23;;;;;;;17.25;nan;103446.28;4926806;29;20035;-55
2021/10/08 07:57:13;;;;;;;24.15;14.95;;;;;;;17.36;nan;103450.91;4928643;29;20465;-55
2021/10/08 07:59:39;;;;;;;27.00;15.68;;;;;;;17.52;nan;103442.16;4927982;29;20031;-55
2021/10/08 08:02:04;;;;;;;23.80;14.68;;;;;;;17.68;nan;103443.44;4924360;29;20594;-55
2021/10/08 08:04:30;;;;;;;26.75;14.88;;;;;;;17.55;nan;103440.03;4918002;29;20446;-55
2021/10/08 08:06:55;;;;;;;26.75;14.32;;;;;;;17.61;nan;103448.09;4928366;29;20478;-54
2021/10/08 08:09:21;;;;;;;24.20;14.10;;;;;;;17.63;nan;103445.97;4927358;29;20075;-56
2021/10/08 08:11:46;;;;;;;25.02;14.13;;;;;;;17.49;nan;103453.47;4927156;29;20035;-56
2021/10/08 08:14:12;;;;;;;24.10;13.30;;;;;;;17.41;nan;103461.06;4929356;29;20032;-53
2021/10/08 08:16:38;;;;;;;24.27;13.38;;;;;;;17.43;nan;103450.84;4922288;29;20079;-57
2021/10/08 08:19:04;;;;;;;22.80;13.00;;;;;;;17.63;nan;103445.97;4918363;29;20036;-54
2021/10/08 08:21:30;;;;;;;24.85;13.07;;;;;;;17.86;nan;103452.56;4917373;29;20032;-55
2021/10/08 08:23:55;;;;;;;21.52;12.80;;;;;;;18.01;nan;103453.78;4928906;29;20363;-55
2021/10/08 08:26:21;;;;;;;19.42;12.45;;;;;;;18.06;nan;103455.81;4928365;29;20070;-56
2021/10/08 08:28:46;;;;;;;22.90;12.50;;;;;;;18.15;nan;103453.59;4919889;29;20249;-54
2021/10/08 08:31:12;;;;;;;20.27;12.93;;;;;;;18.20;nan;103457.25;4913126;29;20443;-56
2021/10/08 08:33:38;;;;;;;28.10;12.63;;;;;;;18.00;nan;103463.00;4914803;29;20031;-54
2021/10/08 08:36:04;;;;;;;19.33;11.35;;;;;;;18.09;nan;103453.44;4914635;29;20024;-55
2021/10/08 08:38:30;;;;;;;20.30;12.43;;;;;;;18.15;nan;103453.59;4922363;29;20152;-56
2021/10/08 08:40:58;;;;;;;21.25;11.52;;;;;;;18.15;nan;103459.84;4925965;29;20035;-57
2021/10/08 08:43:26;;;;;;;21.63;10.35;;;;;;;18.08;nan;103453.69;4920328;29;20443;-56
2021/10/08 08:45:51;;;;;;;18.00;10.80;;;;;;;18.02;nan;103455.44;4925528;29;20034;-54
2021/10/08 08:48:17;;;;;;;18.05;10.02;;;;;;;17.95;nan;103457.41;4924791;29;20034;-54
2021/10/08 08:50:45;;;;;;;21.20;11.13;;;;;;;17.95;nan;103452.00;4919244;28;20031;-56
2021/10/08 08:53:12;;;;;;;18.70;9.85;;;;;;;17.80;nan;103446.19;4927429;29;20031;-53
2021/10/08 08:55:38;;;;;;;18.80;10.63;;;;;;;17.71;nan;103452.97;4919299;29;20035;-56
2021/10/08 08:58:04;;;;;;;21.83;10.10;;;;;;;17.43;nan;103456.28;4918665;29;20475;-53
2021/10/08 09:00:30;;;;;;;18.42;10.27;;;;;;;17.32;nan;103454.31;4912976;29;20028;-56
2021/10/08 09:03:09;;;;;;;17.55;9.10;;;;;;;17.32;nan;103452.44;4918702;29;20179;-54
2021/10/08 09:05:36;;;;;;;16.40;8.57;;;;;;;17.31;nan;103449.94;4925101;29;20340;-54
2021/10/08 09:08:07;;;;;;;21.48;9.23;;;;;;;17.36;nan;103453.63;4927663;29;20399;-56
2021/10/08 09:11:00;;;;;;;18.08;8.95;;;;;;;17.56;nan;103444.41;4924993;29;20035;-56
2021/10/08 09:13:27;;;;;;;22.00;9.63;;;;;;;17.67;nan;103444.47;4922873;29;20459;-55
2021/10/08 09:15:58;;;;;;;16.63;9.23;;;;;;;17.73;nan;103435.44;4924730;29;20232;-55
2021/10/08 09:18:28;;;;;;;17.35;8.90;;;;;;;17.91;nan;103439.97;4925226;29;20039;-54
2021/10/08 09:21:04;;;;;;;16.35;9.48;;;;;;;17.94;nan;103438.66;4926754;29;20114;-53
2021/10/08 09:23:33;;;;;;;16.80;7.95;;;;;;;18.04;nan;103430.78;4911153;29;20737;-56
2021/10/08 09:25:58;;;;;;;16.02;8.98;;;;;;;18.08;nan;103430.09;4924409;29;20027;-53
2021/10/08 09:28:24;;;;;;;19.45;8.80;;;;;;;18.01;nan;103439.41;4926464;29;20030;-56
2021/10/08 09:30:50;;;;;;;19.63;8.55;;;;;;;18.14;nan;103435.66;4923754;29;20546;-56
2021/10/08 09:33:21;;;;;;;20.25;8.63;;;;;;;18.14;nan;103438.38;4919133;29;20032;-55
2021/10/08 09:35:53;;;;;;;19.90;7.55;;;;;;;18.07;nan;103433.88;4921883;29;20490;-55
2021/10/08 09:38:19;;;;;;;17.10;8.23;;;;;;;18.16;nan;103436.25;4921702;29;20075;-54
2021/10/08 09:40:55;;;;;;;17.73;7.68;;;;;;;18.12;nan;103435.88;4924382;29;20138;-55
2021/10/08 09:43:25;;;;;;;13.23;7.38;;;;;;;18.08;nan;103437.41;4922094;29;20043;-56
2021/10/08 09:46:00;;;;;;;21.05;8.05;;;;;;;18.06;nan;103425.97;4920685;29;20024;-55
2021/10/08 09:48:34;;;;;;;19.85;7.97;;;;;;;18.10;nan;103427.13;4918772;29;20024;-55
2021/10/08 09:51:07;;;;;;;19.35;8.30;;;;;;;18.12;nan;103442.13;4925214;29;20027;-54
2021/10/08 09:53:55;;;;;;;17.60;8.05;;;;;;;18.19;nan;103436.59;4923510;29;20031;-56
2021/10/08 09:56:42;;;;;;;23.85;8.40;;;;;;;18.11;nan;103431.50;4926006;29;20031;-54
2021/10/08 09:59:13;;;;;;;20.15;8.15;;;;;;;18.02;nan;103443.78;4925925;29;20426;-56
2021/10/08 10:01:41;;;;;;;21.55;9.68;;;;;;;18.10;nan;103436.09;4925228;29;20032;-54
2021/10/08 10:04:08;;;;;;;26.23;9.20;;;;;;;18.27;nan;103438.97;4926178;29;20114;-56
2021/10/08 10:06:37;;;;;;;30.27;9.05;;;;;;;18.38;nan;103438.16;4920572;29;20042;-56
2021/10/08 10:09:04;;;;;;;20.27;8.10;;;;;;;18.46;nan;103441.56;4911032;29;20086;-56
2021/10/08 10:11:30;;;;;;;24.23;8.60;;;;;;;18.34;nan;103436.97;4920273;29;20490;-53
2021/10/08 10:14:00;;;;;;;20.05;7.82;;;;;;;18.37;nan;103436.50;4922480;29;20054;-56
2021/10/08 10:16:28;;;;;;;20.08;8.65;;;;;;;18.34;nan;103436.97;4923297;29;20375;-56
2021/10/08 10:18:56;;;;;;;21.30;8.25;;;;;;;18.52;nan;103437.94;4923812;29;20036;-53
2021/10/08 10:21:26;;;;;;;31.20;8.50;;;;;;;18.69;nan;103430.75;4916576;29;20031;-56
2021/10/08 10:23:53;;;;;;;26.35;9.75;;;;;;;18.71;nan;103436.78;4912906;29;20816;-55
2021/10/08 10:26:21;;;;;;;24.50;9.55;;;;;;;18.92;nan;103433.44;4914940;29;20032;-56
2021/10/08 10:28:47;;;;;;;17.95;8.18;;;;;;;19.05;nan;103431.53;4919055;29;20028;-56
2021/10/08 10:31:13;;;;;;;28.38;10.32;;;;;;;19.07;nan;103423.97;4923354;29;20374;-56
2021/10/08 10:33:39;;;;;;;21.73;9.20;;;;;;;18.92;nan;103428.00;4905871;29;20028;-53
2021/10/08 10:36:21;;;;;;;25.23;8.57;;;;;;;19.14;nan;103435.50;4913901;29;20034;-56
2021/10/08 10:38:46;;;;;;;19.63;8.77;;;;;;;19.18;nan;103431.22;4920814;29;20035;-53
2021/10/08 10:41:12;;;;;;;14.05;8.48;;;;;;;19.22;nan;103435.13;4918425;29;20034;-56
2021/10/08 10:43:46;;;;;;;20.73;8.90;;;;;;;19.34;nan;103427.75;4923524;29;20055;-55
2021/10/08 10:47:11;;;;;;;17.43;8.77;;;;;;;19.19;nan;103436.44;4918002;29;20332;-55
2021/10/08 10:52:04;;;;;;;29.27;9.40;;;;;;;19.41;nan;103436.59;4921243;29;20039;-54
2021/10/08 10:54:39;;;;;;;23.00;8.30;;;;;;;19.45;nan;103431.50;4923136;29;20023;-56
2021/10/08 10:57:06;;;;;;;18.23;8.80;;;;;;;19.43;nan;103429.03;4925732;29;20032;-56
2021/10/08 10:59:34;;;;;;;23.25;8.60;;;;;;;19.59;nan;103424.75;4923795;29;20027;-55
2021/10/08 11:02:03;;;;;;;19.60;8.88;;;;;;;19.75;nan;103426.69;4920845;29;20038;-55
2021/10/08 11:04:29;;;;;;;16.60;8.18;;;;;;;19.83;nan;103428.16;4921838;29;20024;-56
2021/10/08 11:07:06;;;;;;;21.52;9.15;;;;;;;19.88;nan;103431.78;4927270;29;20059;-57
2021/10/08 11:09:32;;;;;;;22.23;7.80;;;;;;;19.91;nan;103427.75;4924906;29;20027;-56
2021/10/08 11:12:35;;;;;;;18.10;8.18;;;;;;;19.96;nan;103422.41;4926020;29;20395;-56
2021/10/08 11:15:16;;;;;;;21.92;8.40;;;;;;;20.02;nan;103424.13;4920858;29;20031;-55
2021/10/08 11:18:01;;;;;;;29.17;9.23;;;;;;;20.28;nan;103430.78;4925991;29;20147;-56
2021/10/08 11:20:30;;;;;;;20.42;8.90;;;;;;;20.44;nan;103427.25;4916112;29;21903;-55
2021/10/08 11:23:01;;;;;;;21.77;8.25;;;;;;;21.21;nan;103420.94;4926764;29;20112;-55
2021/10/08 11:25:29;;;;;;;18.35;8.48;;;;;;;22.84;nan;103412.25;4913976;29;20114;-54
2021/10/08 11:27:55;;;;;;;24.55;9.00;;;;;;;24.96;nan;103406.28;4923384;29;20099;-55
2021/10/08 11:30:24;;;;;;;21.55;8.40;;;;;;;26.54;nan;103397.63;4922318;29;20079;-57